createdAt,value
2022-08-03T00:01:19.723Z,21.62
2022-08-03T00:05:12.310Z,21.62
2022-08-03T00:09:06.000Z,21.61
2022-08-03T00:12:58.663Z,21.54
2022-08-03T00:16:51.126Z,21.62
2022-08-03T00:20:43.667Z,21.34
2022-08-03T00:24:36.615Z,21.69
2022-08-03T00:28:29.051Z,21.57
2022-08-03T00:32:21.634Z,21.37
2022-08-03T00:36:17.067Z,21.27
2022-08-03T00:40:13.907Z,21.24
2022-08-03T00:44:06.458Z,21.04
2022-08-03T00:47:59.754Z,21.02
2022-08-03T00:51:52.857Z,21.31
2022-08-03T00:55:45.537Z,21.26
2022-08-03T00:59:39.366Z,21.20
2022-08-03T01:03:31.873Z,21.13
2022-08-03T01:07:57.737Z,21.07
2022-08-03T01:12:00.673Z,21.07
2022-08-03T01:16:10.058Z,21.00
2022-08-03T01:20:08.266Z,20.83
2022-08-03T01:24:17.568Z,20.56
2022-08-03T01:28:32.590Z,20.30
2022-08-03T01:33:00.940Z,19.75
2022-08-03T01:36:58.051Z,20.06
2022-08-03T01:40:54.994Z,20.09
2022-08-03T01:44:51.536Z,20.24
2022-08-03T01:48:48.202Z,20.48
2022-08-03T01:52:44.650Z,20.37
2022-08-03T01:56:40.889Z,20.59
2022-08-03T02:00:37.733Z,20.35
2022-08-03T02:04:31.194Z,20.31
2022-08-03T02:08:26.929Z,20.44
2022-08-03T02:12:23.051Z,20.35
2022-08-03T02:16:19.635Z,20.59
2022-08-03T02:20:14.103Z,20.54
2022-08-03T02:24:08.793Z,20.47
2022-08-03T02:28:22.892Z,20.31
2022-08-03T02:32:21.644Z,20.31
2022-08-03T02:36:17.400Z,20.48
2022-08-03T02:40:13.555Z,20.33
2022-08-03T02:44:10.109Z,20.01
2022-08-03T02:48:06.021Z,19.45
2022-08-03T02:52:00.807Z,19.69
2022-08-03T02:55:57.149Z,19.61
2022-08-03T02:59:52.155Z,19.86
2022-08-03T03:03:45.836Z,19.80
2022-08-03T03:07:52.232Z,20.05
2022-08-03T03:11:46.628Z,20.16
2022-08-03T03:15:40.987Z,20.06
2022-08-03T03:19:34.556Z,20.05
2022-08-03T03:23:29.358Z,20.09
2022-08-03T03:27:22.801Z,19.94
2022-08-03T03:31:15.894Z,20.03
2022-08-03T03:35:10.062Z,19.96
2022-08-03T03:39:15.941Z,19.92
2022-08-03T03:43:10.984Z,19.68
2022-08-03T03:47:03.896Z,19.69
2022-08-03T03:50:57.450Z,19.86
2022-08-03T03:54:50.024Z,19.86
2022-08-03T03:58:42.573Z,19.87
2022-08-03T04:02:35.071Z,19.94
2022-08-03T04:06:46.116Z,20.14
2022-08-03T04:11:00.002Z,20.27
2022-08-03T04:14:55.593Z,20.27
2022-08-03T04:18:52.597Z,20.26
2022-08-03T04:22:48.187Z,20.35
2022-08-03T04:26:43.458Z,20.65
2022-08-03T04:30:38.950Z,21.04
2022-08-03T04:34:33.096Z,21.75
2022-08-03T04:38:29.039Z,22.49
2022-08-03T04:42:23.708Z,22.84
2022-08-03T04:50:21.649Z,23.81
2022-08-03T04:58:36.474Z,24.52
2022-08-03T05:02:29.324Z,25.03
2022-08-03T05:14:49.526Z,26.44
2022-08-03T05:22:37.759Z,27.51
2022-08-03T06:02:15.156Z,28.95
2022-08-03T06:06:07.724Z,29.65
2022-08-03T06:10:36.657Z,28.85
2022-08-03T06:14:14.659Z,29.50
2022-08-03T06:18:08.106Z,30.83
2022-08-03T06:22:00.733Z,31.25
2022-08-03T06:25:53.174Z,29.67
2022-08-03T06:29:45.756Z,31.23
2022-08-03T06:34:22.898Z,31.81
2022-08-03T06:37:51.868Z,30.81
2022-08-03T06:41:45.888Z,30.35
2022-08-03T06:45:38.370Z,30.30
2022-08-03T06:49:30.871Z,30.33
2022-08-03T06:53:23.799Z,30.50
2022-08-03T06:57:16.821Z,31.83
2022-08-03T07:01:09.637Z,32.58
2022-08-03T07:05:02.919Z,30.61
2022-08-03T07:08:59.418Z,30.44
2022-08-03T07:12:55.726Z,32.34
2022-08-03T07:16:49.201Z,32.45
2022-08-03T07:20:41.631Z,30.77
2022-08-03T07:24:34.253Z,30.37
2022-08-03T07:28:26.672Z,30.32
2022-08-03T07:32:19.421Z,30.52
2022-08-03T07:36:12.125Z,30.11
2022-08-03T07:40:05.902Z,31.23
2022-08-03T07:43:58.362Z,30.08
2022-08-03T07:47:53.324Z,30.64
2022-08-03T07:52:06.513Z,30.43
2022-08-03T07:55:58.952Z,30.04
2022-08-03T08:00:01.372Z,30.44
2022-08-03T08:03:54.717Z,30.20
2022-08-03T08:07:50.892Z,30.60
2022-08-03T08:11:44.356Z,31.15
2022-08-03T08:15:36.816Z,30.90
2022-08-03T08:19:35.294Z,30.59
2022-08-03T08:23:42.374Z,30.55
2022-08-03T08:28:31.105Z,30.32
2022-08-03T08:32:00.655Z,30.44
2022-08-03T08:35:53.802Z,30.55
2022-08-03T08:39:46.363Z,30.16
2022-08-03T08:43:38.988Z,30.68
2022-08-03T08:47:51.441Z,30.90
2022-08-03T08:51:54.629Z,30.19
2022-08-03T08:56:00.689Z,30.49
2022-08-03T08:59:57.324Z,30.19
2022-08-03T09:03:50.219Z,30.46
2022-08-03T09:07:44.216Z,30.36
2022-08-03T09:11:53.716Z,30.25
2022-08-03T09:15:59.831Z,30.06
2022-08-03T09:20:10.412Z,30.44
2022-08-03T09:24:07.257Z,30.71
2022-08-03T09:28:05.631Z,30.67
2022-08-03T09:32:03.555Z,30.88
2022-08-03T09:35:57.801Z,30.85
2022-08-03T09:39:50.470Z,30.70
2022-08-03T09:43:46.945Z,31.07
2022-08-03T09:47:44.656Z,30.83
2022-08-03T09:52:32.782Z,30.85
2022-08-03T09:56:33.621Z,30.44
2022-08-03T10:00:13.263Z,30.71
2022-08-03T10:04:06.471Z,30.33
2022-08-03T10:07:58.910Z,30.67
2022-08-03T10:11:51.617Z,30.30
2022-08-03T10:16:22.448Z,30.53
2022-08-03T10:19:59.078Z,30.71
2022-08-03T10:23:55.040Z,30.61
2022-08-03T10:27:51.965Z,30.50
2022-08-03T10:31:57.746Z,30.61
2022-08-03T10:35:53.075Z,30.98
2022-08-03T10:39:54.734Z,30.74
2022-08-03T10:44:06.172Z,30.88
2022-08-03T10:48:00.075Z,30.96
2022-08-03T10:51:54.498Z,31.15
2022-08-03T10:56:05.754Z,31.31
2022-08-03T10:59:59.699Z,31.31
2022-08-03T11:03:55.175Z,31.26
2022-08-03T11:07:47.700Z,31.07
2022-08-03T11:11:48.835Z,30.87
2022-08-03T11:15:44.727Z,30.84
2022-08-03T11:19:56.792Z,30.44
2022-08-03T11:24:02.586Z,30.57
2022-08-03T11:28:25.349Z,30.46
2022-08-03T11:32:51.681Z,31.04
2022-08-03T11:37:19.890Z,31.16
2022-08-03T11:41:33.162Z,31.15
2022-08-03T11:45:37.380Z,31.12
2022-08-03T11:49:30.046Z,30.87
2022-08-03T11:53:23.109Z,30.67
2022-08-03T11:59:00.756Z,30.63
2022-08-03T12:01:42.490Z,31.08
2022-08-03T12:05:51.798Z,30.83
2022-08-03T12:10:06.558Z,31.15
2022-08-03T12:14:49.496Z,31.46
2022-08-03T12:18:17.591Z,31.29
2022-08-03T12:22:09.991Z,31.45
2022-08-03T12:26:08.565Z,31.35
2022-08-03T12:30:02.065Z,31.72
2022-08-03T12:33:55.517Z,31.33
2022-08-03T12:37:48.985Z,31.63
2022-08-03T12:41:41.825Z,31.74
2022-08-03T12:45:34.766Z,31.86
2022-08-03T12:49:28.305Z,31.94
2022-08-03T14:24:40.117Z,31.47
2022-08-03T14:28:32.696Z,31.46
2022-08-03T14:32:25.247Z,31.62
2022-08-03T14:36:17.700Z,31.47
2022-08-03T14:40:10.308Z,31.53
2022-08-03T14:44:03.492Z,31.38
2022-08-03T14:50:28.728Z,31.40
2022-08-03T14:52:08.846Z,31.59
2022-08-03T14:56:02.536Z,31.52
2022-08-03T14:59:57.440Z,31.54
2022-08-03T15:03:49.926Z,31.49
2022-08-03T15:07:42.457Z,31.35
2022-08-03T15:11:35.440Z,31.31
2022-08-03T15:15:27.875Z,31.39
2022-08-03T15:20:00.263Z,31.35
2022-08-03T15:23:32.987Z,31.31
2022-08-03T15:27:25.424Z,31.23
2022-08-03T15:31:23.031Z,31.16
2022-08-03T15:35:15.591Z,31.23
2022-08-03T15:39:08.139Z,31.32
2022-08-03T15:43:01.784Z,31.26
2022-08-03T15:46:54.169Z,31.23
2022-08-03T15:50:46.840Z,31.11
2022-08-03T15:54:39.355Z,30.87
2022-08-03T15:59:04.357Z,30.77
2022-08-03T16:02:44.325Z,30.74
2022-08-03T16:06:36.826Z,30.87
2022-08-03T16:10:30.710Z,30.81
2022-08-03T16:14:35.632Z,30.81
2022-08-03T16:18:32.833Z,30.80
2022-08-03T16:22:25.770Z,30.84
2022-08-03T16:26:19.218Z,30.80
2022-08-03T16:30:16.659Z,30.81
2022-08-03T16:34:09.176Z,30.78
2022-08-03T16:38:04.358Z,30.74
2022-08-03T16:42:00.959Z,30.68
2022-08-03T16:45:54.255Z,30.70
2022-08-03T16:49:54.162Z,30.71
2022-08-03T16:54:05.414Z,30.64
2022-08-03T16:58:02.349Z,30.57
2022-08-03T17:01:55.606Z,30.41
2022-08-03T17:05:49.935Z,30.33
2022-08-03T17:09:44.005Z,30.15
2022-08-03T17:13:39.123Z,30.26
2022-08-03T17:17:53.801Z,30.09
2022-08-03T17:21:51.721Z,30.15
2022-08-03T17:26:01.797Z,30.01
2022-08-03T17:30:00.910Z,29.97
2022-08-03T17:33:56.799Z,29.85
2022-08-03T17:37:57.393Z,29.77
2022-08-03T17:41:59.412Z,29.65
2022-08-03T17:45:54.953Z,29.54
2022-08-03T17:49:47.675Z,29.60
2022-08-03T17:53:49.713Z,29.44
2022-08-03T17:58:02.531Z,29.30
2022-08-03T18:02:50.522Z,29.22
2022-08-03T18:06:56.406Z,29.18
2022-08-03T18:10:50.180Z,29.16
2022-08-03T18:14:57.731Z,29.13
2022-08-03T18:18:57.126Z,29.10
2022-08-03T18:22:52.152Z,28.94
2022-08-03T18:26:49.281Z,28.83
2022-08-03T18:30:54.600Z,28.72
2022-08-03T18:34:53.700Z,28.54
2022-08-03T18:38:49.130Z,28.27
2022-08-03T18:42:52.896Z,28.18
2022-08-03T18:47:16.098Z,28.13
2022-08-03T18:51:24.151Z,27.95
2022-08-03T18:55:32.987Z,27.93
2022-08-03T18:59:32.922Z,27.86
2022-08-03T19:03:43.376Z,27.62
2022-08-03T19:07:37.917Z,27.63
2022-08-03T19:12:14.044Z,27.48
2022-08-03T19:15:55.758Z,27.51
2022-08-03T19:19:50.614Z,27.54
2022-08-03T19:23:48.509Z,27.26
2022-08-03T19:27:46.179Z,27.27
2022-08-03T19:31:41.774Z,27.34
2022-08-03T19:35:56.978Z,27.06
2022-08-03T19:39:56.521Z,27.06
2022-08-03T19:43:53.837Z,26.80
2022-08-03T19:47:56.317Z,26.71
2022-08-03T19:52:00.784Z,26.73
2022-08-03T19:55:57.528Z,26.75
2022-08-03T19:59:52.825Z,26.63
2022-08-03T20:03:47.068Z,26.56
2022-08-03T20:07:41.292Z,26.42
2022-08-03T20:11:44.968Z,26.35
2022-08-03T20:15:41.221Z,26.34
2022-08-03T20:19:35.172Z,26.25
2022-08-03T20:23:37.378Z,25.96
2022-08-03T20:28:06.990Z,25.70
2022-08-03T20:32:00.395Z,25.52
2022-08-03T20:35:52.864Z,25.35
2022-08-03T20:39:48.178Z,25.32
2022-08-03T20:43:42.398Z,25.10
2022-08-03T20:47:36.160Z,25.08
2022-08-03T20:51:50.697Z,24.80
2022-08-03T20:55:47.865Z,24.79
2022-08-03T20:59:55.913Z,25.01
2022-08-03T21:03:52.590Z,25.00
2022-08-03T21:08:05.002Z,24.40
2022-08-03T21:12:01.737Z,24.46
2022-08-03T21:16:06.516Z,24.51
2022-08-03T21:20:07.767Z,24.55
2022-08-03T21:24:03.655Z,24.55
2022-08-03T21:27:57.527Z,24.33
2022-08-03T21:31:50.872Z,24.22
2022-08-03T21:35:46.179Z,24.11
2022-08-03T21:39:50.640Z,24.08
2022-08-03T21:43:55.180Z,24.04
2022-08-03T21:47:48.650Z,23.91
2022-08-03T21:51:58.715Z,23.97
2022-08-03T22:00:20.179Z,23.80
2022-08-03T22:04:50.579Z,23.90
2022-08-03T22:08:35.103Z,24.09
2022-08-03T22:12:30.321Z,23.97
2022-08-03T22:16:26.153Z,23.90
2022-08-03T22:20:21.545Z,23.75
2022-08-03T22:24:43.787Z,23.63
2022-08-03T22:28:36.811Z,23.85
2022-08-03T22:32:30.691Z,23.90
2022-08-03T22:36:25.589Z,23.87
2022-08-03T22:40:18.213Z,23.82
2022-08-03T22:44:11.274Z,23.85
2022-08-03T22:48:05.875Z,23.61
2022-08-03T22:51:59.291Z,23.60
2022-08-03T22:55:52.711Z,23.32
2022-08-03T22:59:47.303Z,23.20
2022-08-03T23:04:00.446Z,23.27
2022-08-03T23:07:56.316Z,23.43
2022-08-03T23:11:49.008Z,23.40
2022-08-03T23:15:42.444Z,23.18
2022-08-03T23:19:41.659Z,23.25
2022-08-03T23:23:44.005Z,23.26
2022-08-03T23:27:42.936Z,23.05
2022-08-03T23:31:36.048Z,22.74
2022-08-03T23:36:29.163Z,22.68
2022-08-03T23:40:01.087Z,22.53
2022-08-03T23:43:54.471Z,22.40
2022-08-03T23:47:48.500Z,21.81
2022-08-03T23:51:54.247Z,21.75
2022-08-03T23:56:01.432Z,21.68
2022-08-03T23:59:53.957Z,22.13
